KABE

Lehigh Valley International Airport

Allentown, Pennsylvania, USA
METAR KABE 161751Z 26008KT 10SM OVC035 03/M05 A3005 RMK AO2 SLP179 T00331050 10033 21006 58013
Observed Flight Rules
Jan-16 @ 17:51 UTC (43 minutes ago) Visual Flight Rules
Wind Visibility Clouds
260° at 8 knots 10 miles
  • Overcast at 3,500' AGL
Temperatures Readings
Current 3°C / 37°F
Dewpoint -5°C / 23°F
Humidity 56%
Altimeter 30.05" Hg
Pressure 1017.9 hPa
Elevation 114
METAR KABE 161751Z 26008KT 10SM OVC035 03/M05 A3005 RMK AO2 SLP179 T00331050 10033 21006 58013
Observed Flight Rules
Jan-16 @ 17:51 UTC
(43 minutes ago)
VFR
Wind Visibility
260° at 8 knots 10 miles
Clouds
  • Overcast at 3,500' AGL
Temperature Dewpoint
3°C / 37°F -5°C / 23°F
Humidity Altimeter Pressure
56% 30.05" Hg 1017.9 hPa